Twr-7 — TWR-7 — position and weather

sailwx.info

Track history (hours):
 
Tides and Currents Weather Stations Pressure Air Temp Water Temp Dewpoint Dewpoint Depression Visibility Wind Speed Wind Dir Waves Ship Positions

Twr-7

Last reported at 2014-Sep-18 01:08 UTC. Time now 2014-Sep-20 16:05 UTC.
Position N 49°16' W 124°09'.

; draft 1.5 m.

Type: Military. MMSI: 369970258.

Date/timePositionNaut miles runAvg speedWind from/ knotsBaromVisibWave heightAir tempDewpointWater temp
2014-Sep-18 01:08N 49°16' W 124°09'1 1.0
2014-Sep-18 00:33N 49°16' W 124°08'9 9.1
2014-Sep-17 23:33N 49°21' W 123°57'2 1.6
2014-Sep-17 22:33N 49°19' W 123°56'2 1.8
2014-Sep-17 21:33N 49°21' W 123°57'3 2.6
2014-Sep-17 20:33N 49°21' W 124°01'2 1.6
2014-Sep-17 19:33N 49°21' W 123°58'1 0.7
2014-Sep-17 18:33N 49°21' W 123°57'1 1.4
2014-Sep-17 17:33N 49°21' W 123°60'1 0.5
2014-Sep-17 16:33N 49°21' W 123°59'1 0.7
2014-Sep-17 15:33N 49°21' W 123°58'8 7.6
2014-Sep-17 14:33N 49°16' W 124°06'2 1.8
2014-Sep-17 13:33N 49°16' W 124°09'0 0.0
2014-Sep-17 12:33N 49°16' W 124°09'0 0.0
2014-Sep-17 11:33N 49°16' W 124°09'0 0.0
2014-Sep-17 10:33N 49°16' W 124°09'0 0.0
2014-Sep-17 09:33N 49°16' W 124°09'0 0.0
2014-Sep-17 08:33N 49°16' W 124°09'0 0.0
2014-Sep-17 07:33N 49°16' W 124°09'0 0.0
2014-Sep-17 06:33N 49°16' W 124°09'0 0.0
2014-Sep-17 05:33N 49°16' W 124°09'0 0.0
2014-Sep-17 04:33N 49°16' W 124°09'0 0.0
2014-Sep-17 03:33N 49°16' W 124°09'0 0.0
2014-Sep-17 02:33N 49°16' W 124°09'0 0.0
2014-Sep-17 01:33N 49°16' W 124°09'0 0.0
2014-Sep-17 00:33N 49°16' W 124°09'0 0.2
2014-Sep-16 23:33N 49°16' W 124°09'10 9.7
2014-Sep-16 22:33N 49°19' W 123°55'2 2.4
2014-Sep-16 21:33N 49°21' W 123°58'4 3.7
2014-Sep-16 20:33N 49°21' W 124°03'0 0.4
2014-Sep-16 19:33N 49°21' W 124°03'3 3.2
2014-Sep-16 18:33N 49°21' W 123°58'4 3.6
2014-Sep-16 17:33N 49°21' W 124°03'2 2.1
2014-Sep-16 16:33N 49°20' W 124°06'1 0.8
2014-Sep-16 15:34N 49°20' W 124°05'  
2014-Sep-11 20:16N 49°16' W 124°09'1 0.8
2014-Sep-11 19:33N 49°16' W 124°08'7 6.9
2014-Sep-11 18:33N 49°19' W 123°59'3 2.7
2014-Sep-11 17:33N 49°21' W 123°56'1 0.6
2014-Sep-11 16:33N 49°21' W 123°55'3 2.7
2014-Sep-11 15:33N 49°21' W 123°60'8 8.0
2014-Sep-11 14:33N 49°16' W 124°09'0 0.5
2014-Sep-11 13:33N 49°16' W 124°09'0 0.0
2014-Sep-11 12:33N 49°16' W 124°09'0 0.0
2014-Sep-11 11:33N 49°16' W 124°09'0 0.0
2014-Sep-11 10:33N 49°16' W 124°09'0 0.0
2014-Sep-11 09:33N 49°16' W 124°09'0 0.0
2014-Sep-11 08:33N 49°16' W 124°09'0 0.0
2014-Sep-11 07:09N 49°16' W 124°09'0 0.0
2014-Sep-11 06:27N 49°16' W 124°09'0 0.0
2014-Sep-11 05:29N 49°16' W 124°09'0 0.0
2014-Sep-11 04:29N 49°16' W 124°09'0 0.0
2014-Sep-11 03:25N 49°16' W 124°09'11 1.1
2014-Sep-10 17:16N 49°22' W 123°54'1 0.5
2014-Sep-10 16:14N 49°22' W 123°54'4 5.4
2014-Sep-10 15:30N 49°21' W 124°00'7 7.2
2014-Sep-10 14:28N 49°16' W 124°09'  
Track history (hours):
 
Tides and Currents Weather Stations Pressure Air Temp Water Temp Dewpoint Dewpoint Depression Visibility Wind Speed Wind Dir Waves Ship Positions

Twr-7

Last reported at 2014-Sep-18 01:08 UTC. Time now 2014-Sep-20 16:05 UTC.
Position N 49°16' W 124°09'.

; draft 1.5 m.

Type: Military. MMSI: 369970258.

Date/timePositionNaut miles runAvg speedWind from/ knotsBaromVisibWave heightAir tempDewpointWater temp
2014-Sep-18 01:08N 49°16' W 124°09'1 1.0
2014-Sep-18 00:33N 49°16' W 124°08'9 9.1
2014-Sep-17 23:33N 49°21' W 123°57'2 1.6
2014-Sep-17 22:33N 49°19' W 123°56'2 1.8
2014-Sep-17 21:33N 49°21' W 123°57'3 2.6
2014-Sep-17 20:33N 49°21' W 124°01'2 1.6
2014-Sep-17 19:33N 49°21' W 123°58'1 0.7
2014-Sep-17 18:33N 49°21' W 123°57'1 1.4
2014-Sep-17 17:33N 49°21' W 123°60'1 0.5
2014-Sep-17 16:33N 49°21' W 123°59'1 0.7
2014-Sep-17 15:33N 49°21' W 123°58'8 7.6
2014-Sep-17 14:33N 49°16' W 124°06'2 1.8
2014-Sep-17 13:33N 49°16' W 124°09'0 0.0
2014-Sep-17 12:33N 49°16' W 124°09'0 0.0
2014-Sep-17 11:33N 49°16' W 124°09'0 0.0
2014-Sep-17 10:33N 49°16' W 124°09'0 0.0
2014-Sep-17 09:33N 49°16' W 124°09'0 0.0
2014-Sep-17 08:33N 49°16' W 124°09'0 0.0
2014-Sep-17 07:33N 49°16' W 124°09'0 0.0
2014-Sep-17 06:33N 49°16' W 124°09'0 0.0
2014-Sep-17 05:33N 49°16' W 124°09'0 0.0
2014-Sep-17 04:33N 49°16' W 124°09'0 0.0
2014-Sep-17 03:33N 49°16' W 124°09'0 0.0
2014-Sep-17 02:33N 49°16' W 124°09'0 0.0
2014-Sep-17 01:33N 49°16' W 124°09'0 0.0
2014-Sep-17 00:33N 49°16' W 124°09'0 0.2
2014-Sep-16 23:33N 49°16' W 124°09'10 9.7
2014-Sep-16 22:33N 49°19' W 123°55'2 2.4
2014-Sep-16 21:33N 49°21' W 123°58'4 3.7
2014-Sep-16 20:33N 49°21' W 124°03'0 0.4
2014-Sep-16 19:33N 49°21' W 124°03'3 3.2
2014-Sep-16 18:33N 49°21' W 123°58'4 3.6
2014-Sep-16 17:33N 49°21' W 124°03'2 2.1
2014-Sep-16 16:33N 49°20' W 124°06'1 0.8
2014-Sep-16 15:34N 49°20' W 124°05'  
2014-Sep-11 20:16N 49°16' W 124°09'1 0.8
2014-Sep-11 19:33N 49°16' W 124°08'7 6.9
2014-Sep-11 18:33N 49°19' W 123°59'3 2.7
2014-Sep-11 17:33N 49°21' W 123°56'1 0.6
2014-Sep-11 16:33N 49°21' W 123°55'3 2.7
2014-Sep-11 15:33N 49°21' W 123°60'8 8.0
2014-Sep-11 14:33N 49°16' W 124°09'0 0.5
2014-Sep-11 13:33N 49°16' W 124°09'0 0.0
2014-Sep-11 12:33N 49°16' W 124°09'0 0.0
2014-Sep-11 11:33N 49°16' W 124°09'0 0.0
2014-Sep-11 10:33N 49°16' W 124°09'0 0.0
2014-Sep-11 09:33N 49°16' W 124°09'0 0.0
2014-Sep-11 08:33N 49°16' W 124°09'0 0.0
2014-Sep-11 07:09N 49°16' W 124°09'0 0.0
2014-Sep-11 06:27N 49°16' W 124°09'0 0.0
2014-Sep-11 05:29N 49°16' W 124°09'0 0.0
2014-Sep-11 04:29N 49°16' W 124°09'0 0.0
2014-Sep-11 03:25N 49°16' W 124°09'11 1.1
2014-Sep-10 17:16N 49°22' W 123°54'1 0.5
2014-Sep-10 16:14N 49°22' W 123°54'4 5.4
2014-Sep-10 15:30N 49°21' W 124°00'7 7.2
2014-Sep-10 14:28N 49°16' W 124°09'  

Dump ship's entire track history